aviador You're here:

MMLP Decoded Metar

LA PAZ in MEXICO
Report Time2017-05-30 11:00:00
UTC Time2017-05-30 11:14:16
Flight Rules vfr VFR
Wind170° at 08 kt
W.Decomp.*RWY 18: 7.5 kt HW 2.7 kt LCW
W.Rank170° ranks 4
Current wind is above 170° avg. (6.8)
Visibility9999 m
Phenomena:N/A
Clouds:N/A
Expected CloudBase > 800 ft AGL from Temp-Dew spread
CeilingNone
Temp15°C (ISA 0)
Dew Point13°C (88% RH)
AAT13.1°C
QNH1012 hPa
Density Alt318 ft
Elevation69 ft
Report Wrong Elevation
Raw Report
MMLP 301100Z 17008KT 10SM SKC 15/13 A2988 RMK HZY=

Extra information for MMLP:More info

Metar Taf Metar & Taf Last 4 Metars F.Rules Stats Wind Profile Meteogram Temp Stats Airport Information Weather charts Add Link Nearby VenuesMetar ALERT Operation Metar Decoded Social comments